createdAt,value
2018-02-15T00:00:25.153Z,10.67
2018-02-15T00:02:51.310Z,10.60
2018-02-15T00:05:17.532Z,11.13
2018-02-15T00:07:43.698Z,9.37
2018-02-15T00:10:09.897Z,11.07
2018-02-15T00:12:36.097Z,11.20
2018-02-15T00:15:02.257Z,10.23
2018-02-15T00:17:28.469Z,11.47
2018-02-15T00:19:54.630Z,10.87
2018-02-15T00:22:20.838Z,11.27
2018-02-15T00:24:47.064Z,11.73
2018-02-15T00:27:13.232Z,10.83
2018-02-15T00:29:39.494Z,10.03
2018-02-15T00:32:05.675Z,10.10
2018-02-15T00:34:31.808Z,10.73
2018-02-15T00:36:57.929Z,11.53
2018-02-15T00:39:24.165Z,10.30
2018-02-15T00:41:50.392Z,10.70
2018-02-15T00:44:16.525Z,9.73
2018-02-15T00:46:42.682Z,11.10
2018-02-15T00:49:08.945Z,12.93
2018-02-15T00:51:35.183Z,11.50
2018-02-15T00:54:01.329Z,11.23
2018-02-15T00:56:27.490Z,11.53
2018-02-15T00:58:53.745Z,11.80
2018-02-15T01:01:19.984Z,10.07
2018-02-15T01:03:46.112Z,11.67
2018-02-15T01:06:12.337Z,11.47
2018-02-15T01:08:38.471Z,11.13
2018-02-15T01:11:04.681Z,10.20
2018-02-15T01:13:30.854Z,11.67
2018-02-15T01:15:56.977Z,10.47
2018-02-15T01:18:23.127Z,10.17
2018-02-15T01:20:49.329Z,11.13
2018-02-15T01:23:15.477Z,10.80
2018-02-15T01:25:41.616Z,12.10
2018-02-15T01:28:07.762Z,10.57
2018-02-15T01:30:33.977Z,11.20
2018-02-15T01:33:00.150Z,10.53
2018-02-15T01:35:26.347Z,11.17
2018-02-15T01:37:52.494Z,9.40
2018-02-15T01:40:18.667Z,10.10
2018-02-15T01:42:51.704Z,10.57
2018-02-15T01:45:17.832Z,9.77
2018-02-15T01:47:44.021Z,9.93
2018-02-15T01:50:10.194Z,10.03
2018-02-15T01:52:36.399Z,9.83
2018-02-15T01:55:02.581Z,9.43
2018-02-15T01:57:28.795Z,9.17
2018-02-15T01:59:54.976Z,8.60
2018-02-15T02:02:21.179Z,12.60
2018-02-15T02:04:47.340Z,8.87
2018-02-15T02:10:16.258Z,7.93
2018-02-15T02:12:42.434Z,11.10
2018-02-15T02:15:08.568Z,8.83
2018-02-15T02:17:34.700Z,8.13
2018-02-15T02:20:00.884Z,8.47
2018-02-15T02:22:27.058Z,7.80
2018-02-15T02:24:53.260Z,9.13
2018-02-15T02:27:19.642Z,9.50
2018-02-15T02:29:45.845Z,8.53
2018-02-15T02:32:12.061Z,9.10
2018-02-15T02:34:38.196Z,9.13
2018-02-15T02:37:04.321Z,7.63
2018-02-15T02:39:30.471Z,8.93
2018-02-15T02:41:56.708Z,8.30
2018-02-15T02:44:22.840Z,8.33
2018-02-15T02:46:49.018Z,8.43
2018-02-15T02:49:15.194Z,11.17
2018-02-15T02:51:41.404Z,8.80
2018-02-15T02:54:07.554Z,7.97
2018-02-15T02:56:33.704Z,8.70
2018-02-15T02:58:59.853Z,7.47
2018-02-15T03:01:32.985Z,8.47
2018-02-15T03:03:59.235Z,8.70
2018-02-15T03:06:25.403Z,8.60
2018-02-15T03:08:51.571Z,8.53
2018-02-15T03:11:17.849Z,8.33
2018-02-15T03:13:44.095Z,8.53
2018-02-15T03:16:10.230Z,8.33
2018-02-15T03:18:36.373Z,8.63
2018-02-15T03:21:02.546Z,7.57
2018-02-15T03:23:28.765Z,8.90
2018-02-15T03:25:54.920Z,12.53
2018-02-15T03:28:21.143Z,9.77
2018-02-15T03:30:47.276Z,9.60
2018-02-15T03:33:13.484Z,9.43
2018-02-15T03:35:39.666Z,9.10
2018-02-15T03:38:05.793Z,8.03
2018-02-15T03:40:31.911Z,9.43
2018-02-15T03:42:58.102Z,9.27
2018-02-15T03:45:43.929Z,13.07
2018-02-15T03:48:10.119Z,8.73
2018-02-15T03:50:36.307Z,11.37
2018-02-15T03:53:02.497Z,10.77
2018-02-15T03:55:28.683Z,9.67
2018-02-15T03:57:54.826Z,9.33
2018-02-15T04:03:29.640Z,12.03
2018-02-15T04:05:56.007Z,7.90
2018-02-15T04:08:22.199Z,8.63
2018-02-15T04:13:48.438Z,12.17
2018-02-15T04:16:14.619Z,8.93
2018-02-15T04:18:44.287Z,11.23
2018-02-15T04:21:10.455Z,11.67
2018-02-15T04:23:36.660Z,8.80
2018-02-15T04:26:02.859Z,8.80
2018-02-15T04:28:29.002Z,9.73
2018-02-15T04:30:55.128Z,7.87
2018-02-15T04:33:21.308Z,8.80
2018-02-15T04:35:47.437Z,9.47
2018-02-15T04:38:13.597Z,8.10
2018-02-15T04:40:39.782Z,10.37
2018-02-15T04:43:05.998Z,8.77
2018-02-15T04:45:32.163Z,9.60
2018-02-15T04:47:58.305Z,10.43
2018-02-15T04:50:24.576Z,11.07
2018-02-15T04:52:50.782Z,10.03
2018-02-15T04:57:48.697Z,9.60
2018-02-15T05:00:14.889Z,10.27
2018-02-15T05:02:41.131Z,11.67
2018-02-15T05:05:07.339Z,13.07
2018-02-15T05:07:33.535Z,10.10
2018-02-15T05:09:59.700Z,9.50
2018-02-15T05:12:25.923Z,10.53
2018-02-15T05:14:52.076Z,10.10
2018-02-15T05:17:18.305Z,8.80
2018-02-15T05:19:44.478Z,9.83
2018-02-15T05:22:10.683Z,9.77
2018-02-15T05:24:36.910Z,9.40
2018-02-15T05:27:03.093Z,9.03
2018-02-15T05:29:29.513Z,9.47
2018-02-15T05:31:55.754Z,10.07
2018-02-15T05:34:21.960Z,10.73
2018-02-15T05:36:48.148Z,10.37
2018-02-15T05:39:14.331Z,9.43
2018-02-15T05:41:40.480Z,11.93
2018-02-15T05:44:06.663Z,10.23
2018-02-15T05:46:32.877Z,10.77
2018-02-15T05:48:59.045Z,11.17
2018-02-15T05:51:25.242Z,10.33
2018-02-15T05:53:51.444Z,11.70
2018-02-15T05:56:17.558Z,12.43
2018-02-15T05:58:43.729Z,10.70
2018-02-15T06:01:09.920Z,11.63
2018-02-15T06:03:36.125Z,11.93
2018-02-15T06:06:02.273Z,11.50
2018-02-15T06:08:28.411Z,12.07
2018-02-15T06:10:54.588Z,13.43
2018-02-15T06:13:20.756Z,12.80
2018-02-15T06:15:46.901Z,12.10
2018-02-15T06:18:13.093Z,15.07
2018-02-15T06:20:39.252Z,14.33
2018-02-15T06:23:05.460Z,13.17
2018-02-15T06:25:31.610Z,12.73
2018-02-15T06:27:57.838Z,13.47
2018-02-15T06:30:24.042Z,13.83
2018-02-15T06:32:50.262Z,13.83
2018-02-15T06:35:16.486Z,14.17
2018-02-15T06:37:42.604Z,14.47
2018-02-15T06:40:08.803Z,14.70
2018-02-15T06:42:35.037Z,15.77
2018-02-15T06:45:01.273Z,14.37
2018-02-15T06:47:27.419Z,14.97
2018-02-15T06:49:53.547Z,15.30
2018-02-15T06:52:19.803Z,15.37
2018-02-15T06:54:46.008Z,17.47
2018-02-15T06:57:12.158Z,18.03
2018-02-15T06:59:38.607Z,16.40
2018-02-15T07:02:04.847Z,16.83
2018-02-15T07:04:31.062Z,16.63
2018-02-15T07:06:57.240Z,17.87
2018-02-15T07:09:23.477Z,18.20
2018-02-15T07:11:49.714Z,16.53
2018-02-15T07:14:15.927Z,18.57
2018-02-15T07:16:42.120Z,20.53
2018-02-15T07:19:08.324Z,19.70
2018-02-15T07:21:34.493Z,19.00
2018-02-15T07:24:00.686Z,17.53
2018-02-15T07:26:26.890Z,18.60
2018-02-15T07:28:53.095Z,22.10
2018-02-15T07:31:19.341Z,25.40
2018-02-15T07:33:45.490Z,23.17
2018-02-15T07:36:11.644Z,22.33
2018-02-15T07:38:37.749Z,23.10
2018-02-15T07:41:03.916Z,24.83
2018-02-15T07:43:30.068Z,23.00
2018-02-15T07:45:56.158Z,23.27
2018-02-15T07:48:22.338Z,25.67
2018-02-15T07:50:48.538Z,26.93
2018-02-15T07:53:14.726Z,27.03
2018-02-15T07:55:40.894Z,25.27
2018-02-15T07:58:07.354Z,29.80
2018-02-15T08:00:33.584Z,30.80
2018-02-15T08:02:59.758Z,29.33
2018-02-15T08:05:26.265Z,28.53
2018-02-15T08:07:52.392Z,34.53
2018-02-15T08:10:18.528Z,29.17
2018-02-15T08:12:44.664Z,26.27
2018-02-15T08:15:10.788Z,27.20
2018-02-15T08:17:36.924Z,26.77
2018-02-15T08:20:03.102Z,25.43
2018-02-15T08:22:29.220Z,26.50
2018-02-15T08:24:55.406Z,27.13
2018-02-15T08:27:21.492Z,24.83
2018-02-15T08:29:47.595Z,22.63
2018-02-15T08:32:13.785Z,23.43
2018-02-15T08:34:39.964Z,24.20
2018-02-15T08:37:06.093Z,23.60
2018-02-15T08:39:32.255Z,22.63
2018-02-15T08:41:58.437Z,21.80
2018-02-15T08:44:24.614Z,26.00
2018-02-15T08:46:50.713Z,21.63
2018-02-15T08:49:16.842Z,19.40
2018-02-15T08:51:43.019Z,22.47
2018-02-15T08:54:09.174Z,20.13
2018-02-15T08:56:35.310Z,18.83
2018-02-15T08:59:01.406Z,19.93
2018-02-15T09:01:27.505Z,20.30
2018-02-15T09:03:53.667Z,21.93
2018-02-15T09:06:19.843Z,21.40
2018-02-15T09:08:45.947Z,21.90
2018-02-15T09:11:12.118Z,20.57
2018-02-15T09:13:38.259Z,21.23
2018-02-15T09:16:04.411Z,22.20
2018-02-15T09:18:30.557Z,21.77
2018-02-15T09:20:56.697Z,26.33
2018-02-15T09:23:22.866Z,20.57
2018-02-15T09:25:48.988Z,19.30
2018-02-15T09:28:15.156Z,19.00
2018-02-15T09:30:41.264Z,20.53
2018-02-15T09:33:07.442Z,20.20
2018-02-15T09:35:33.532Z,20.80
2018-02-15T09:37:59.646Z,24.43
2018-02-15T09:40:25.791Z,22.03
2018-02-15T09:42:51.945Z,20.23
2018-02-15T09:45:18.095Z,19.30
2018-02-15T09:47:44.352Z,21.40
2018-02-15T09:50:10.603Z,21.03
2018-02-15T09:52:36.843Z,20.07
2018-02-15T09:58:11.844Z,21.10
2018-02-15T10:00:38.018Z,21.10
2018-02-15T10:03:04.225Z,19.90
2018-02-15T10:05:30.452Z,17.83
2018-02-15T10:07:56.623Z,24.33
2018-02-15T10:10:22.765Z,19.23
2018-02-15T10:12:48.962Z,18.47
2018-02-15T10:15:15.151Z,18.73
2018-02-15T10:17:41.264Z,17.60
2018-02-15T10:20:07.409Z,18.17
2018-02-15T10:22:33.528Z,18.83
2018-02-15T10:24:59.709Z,18.17
2018-02-15T10:27:25.838Z,18.97
2018-02-15T10:29:52.095Z,17.93
2018-02-15T10:32:18.618Z,16.30
2018-02-15T10:34:44.824Z,15.93
2018-02-15T10:37:10.981Z,15.60
2018-02-15T10:39:37.192Z,15.33
2018-02-15T10:42:03.393Z,13.70
2018-02-15T10:44:29.715Z,18.67
2018-02-15T10:46:55.857Z,13.97
2018-02-15T10:49:21.992Z,14.40
2018-02-15T10:51:48.177Z,15.00
2018-02-15T10:54:14.401Z,14.50
2018-02-15T10:56:40.552Z,12.90
2018-02-15T10:59:06.815Z,12.90
2018-02-15T11:01:38.927Z,12.73
2018-02-15T11:07:10.883Z,11.60
2018-02-15T11:09:43.942Z,11.30
2018-02-15T11:12:10.164Z,12.87
2018-02-15T11:14:36.372Z,11.80
2018-02-15T11:17:02.548Z,13.40
2018-02-15T11:19:28.785Z,12.27
2018-02-15T11:21:54.948Z,10.87
2018-02-15T11:24:21.183Z,12.70
2018-02-15T11:26:47.385Z,12.43
2018-02-15T11:29:13.925Z,11.23
2018-02-15T11:31:40.299Z,11.37
2018-02-15T11:34:07.209Z,10.93
2018-02-15T11:36:33.566Z,13.30
2018-02-15T11:38:59.743Z,9.70
2018-02-15T11:41:26.113Z,10.87
2018-02-15T11:43:52.324Z,9.17
2018-02-15T11:46:19.567Z,9.87
2018-02-15T11:48:45.896Z,8.27
2018-02-15T11:51:12.140Z,9.30
2018-02-15T11:53:39.611Z,9.23
2018-02-15T11:56:05.884Z,8.93
2018-02-15T11:58:32.077Z,8.07
2018-02-15T12:00:58.245Z,7.57
2018-02-15T12:03:24.457Z,8.17
2018-02-15T12:05:50.732Z,7.30
2018-02-15T12:08:16.888Z,8.30
2018-02-15T12:10:43.194Z,7.27
2018-02-15T12:13:09.487Z,10.93
2018-02-15T12:15:35.729Z,8.03
2018-02-15T12:18:01.916Z,8.03
2018-02-15T12:20:28.202Z,8.93
2018-02-15T12:22:54.908Z,8.67
2018-02-15T12:25:21.288Z,7.37
2018-02-15T12:27:47.620Z,8.83
2018-02-15T12:30:13.804Z,6.60
2018-02-15T12:32:40.243Z,8.50
2018-02-15T12:35:06.604Z,7.77
2018-02-15T12:37:32.765Z,7.97
2018-02-15T12:39:59.153Z,7.57
2018-02-15T12:42:25.371Z,6.80
2018-02-15T12:44:51.589Z,6.50
2018-02-15T12:47:17.894Z,6.10
2018-02-15T12:49:44.081Z,9.13
2018-02-15T12:52:10.340Z,5.57
2018-02-15T12:54:36.542Z,6.27
2018-02-15T12:57:02.863Z,5.73
2018-02-15T12:59:29.284Z,5.80
2018-02-15T13:01:55.656Z,6.70
2018-02-15T13:04:21.942Z,6.03
2018-02-15T13:06:48.334Z,5.77
2018-02-15T13:09:14.579Z,6.20
2018-02-15T13:11:40.829Z,6.07
2018-02-15T13:14:07.339Z,6.50
2018-02-15T13:16:46.793Z,5.97
2018-02-15T13:19:25.393Z,7.07
2018-02-15T13:21:51.622Z,5.87
2018-02-15T13:24:18.411Z,6.00
2018-02-15T13:26:44.682Z,4.80
2018-02-15T13:29:11.147Z,5.73
2018-02-15T13:31:37.705Z,8.13
2018-02-15T13:34:04.735Z,5.87
2018-02-15T13:36:31.237Z,6.40
2018-02-15T13:38:57.577Z,5.53
2018-02-15T13:41:23.878Z,7.07
2018-02-15T13:43:50.047Z,5.30
2018-02-15T13:46:16.424Z,6.20
2018-02-15T13:48:42.664Z,7.10
2018-02-15T13:51:09.168Z,5.67
2018-02-15T13:53:35.564Z,5.27
2018-02-15T13:56:01.807Z,6.27
2018-02-15T13:58:28.229Z,7.40
2018-02-15T14:00:54.656Z,5.57
2018-02-15T14:03:20.955Z,5.97
2018-02-15T14:05:47.370Z,6.37
2018-02-15T14:08:13.785Z,5.73
2018-02-15T14:10:40.080Z,5.40
2018-02-15T14:13:06.305Z,5.87
2018-02-15T14:15:32.624Z,4.60
2018-02-15T14:17:58.816Z,5.87
2018-02-15T14:20:24.992Z,4.53
2018-02-15T14:22:51.180Z,4.90
2018-02-15T14:25:17.396Z,3.77
2018-02-15T14:27:43.590Z,3.67
2018-02-15T14:30:09.785Z,4.80
2018-02-15T14:32:36.177Z,5.03
2018-02-15T14:35:02.610Z,5.60
2018-02-15T14:37:28.877Z,4.80
2018-02-15T14:39:55.284Z,6.30
2018-02-15T14:42:21.824Z,4.53
2018-02-15T14:44:48.973Z,5.87
2018-02-15T14:47:15.206Z,6.50
2018-02-15T14:49:42.702Z,9.63
2018-02-15T14:52:09.350Z,7.53
2018-02-15T14:54:35.895Z,7.80
2018-02-15T14:57:02.271Z,5.27
2018-02-15T14:59:29.468Z,7.83
2018-02-15T15:01:55.815Z,4.80
2018-02-15T15:04:22.026Z,5.47
2018-02-15T15:06:48.327Z,4.23
2018-02-15T15:09:14.569Z,4.70
2018-02-15T15:11:41.899Z,4.53
2018-02-15T15:14:08.641Z,5.50
2018-02-15T15:16:34.937Z,4.10
2018-02-15T15:19:03.304Z,5.17
2018-02-15T15:21:29.475Z,4.03
2018-02-15T15:23:56.958Z,5.37
2018-02-15T15:26:23.622Z,8.73
2018-02-15T15:28:49.924Z,4.50
2018-02-15T15:31:16.105Z,4.40
2018-02-15T15:33:42.312Z,4.00
2018-02-15T15:36:08.585Z,3.87
2018-02-15T15:38:34.758Z,3.97
2018-02-15T15:41:00.961Z,4.20
2018-02-15T15:43:27.307Z,4.30
2018-02-15T15:45:53.501Z,4.87
2018-02-15T15:48:19.796Z,5.93
2018-02-15T15:50:46.066Z,4.60
2018-02-15T15:53:12.262Z,4.23
2018-02-15T15:55:38.476Z,4.33
2018-02-15T15:58:04.682Z,4.53
2018-02-15T16:00:30.844Z,3.90
2018-02-15T16:05:29.976Z,3.40
2018-02-15T16:07:56.220Z,3.67
2018-02-15T16:10:22.420Z,4.33
2018-02-15T16:12:48.762Z,4.20
2018-02-15T16:15:14.971Z,4.23
2018-02-15T16:17:41.187Z,3.87
2018-02-15T16:20:07.430Z,3.63
2018-02-15T16:22:34.102Z,4.00
2018-02-15T16:25:00.365Z,3.27
2018-02-15T16:27:26.593Z,4.20
2018-02-15T16:29:52.839Z,4.07
2018-02-15T16:32:19.055Z,3.90
2018-02-15T16:34:45.221Z,4.43
2018-02-15T16:37:11.476Z,4.23
2018-02-15T16:39:37.721Z,6.83
2018-02-15T16:42:04.029Z,4.03
2018-02-15T16:44:30.260Z,4.47
2018-02-15T16:46:56.491Z,4.10
2018-02-15T16:49:22.722Z,3.53
2018-02-15T16:51:48.976Z,3.80
2018-02-15T16:54:15.182Z,4.03
2018-02-15T16:56:41.397Z,4.27
2018-02-15T16:59:07.672Z,4.37
2018-02-15T17:01:33.859Z,4.50
2018-02-15T17:04:00.056Z,4.47
2018-02-15T17:06:26.329Z,7.03
2018-02-15T17:08:52.581Z,5.00
2018-02-15T17:11:18.851Z,4.70
2018-02-15T17:13:45.016Z,4.63
2018-02-15T17:16:11.258Z,5.93
2018-02-15T17:18:37.508Z,4.33
2018-02-15T17:21:03.671Z,4.80
2018-02-15T17:23:29.880Z,4.03
2018-02-15T17:25:56.228Z,4.07
2018-02-15T17:28:22.451Z,4.40
2018-02-15T17:30:48.671Z,4.33
2018-02-15T17:33:14.866Z,4.57
2018-02-15T17:35:41.187Z,4.67
2018-02-15T17:38:07.387Z,3.57
2018-02-15T17:40:33.583Z,3.33
2018-02-15T17:42:59.807Z,3.03
2018-02-15T17:45:25.957Z,3.93
2018-02-15T17:47:52.228Z,3.27
2018-02-15T17:50:18.445Z,3.80
2018-02-15T17:52:44.660Z,4.30
2018-02-15T17:55:10.875Z,3.40
2018-02-15T17:57:37.184Z,6.03
2018-02-15T18:00:04.383Z,4.53
2018-02-15T18:02:30.546Z,3.53
2018-02-15T18:04:56.745Z,3.03
2018-02-15T18:07:22.993Z,3.90
2018-02-15T18:09:49.157Z,3.03
2018-02-15T18:12:15.563Z,4.23
2018-02-15T18:14:41.734Z,4.43
2018-02-15T18:17:07.953Z,4.50
2018-02-15T18:19:34.180Z,5.03
2018-02-15T18:22:00.445Z,9.33
2018-02-15T18:24:26.816Z,11.13
2018-02-15T18:26:53.631Z,6.23
2018-02-15T18:29:24.100Z,7.20
2018-02-15T18:31:50.289Z,5.13
2018-02-15T18:34:16.561Z,9.07
2018-02-15T18:36:44.235Z,6.13
2018-02-15T18:39:10.440Z,6.00
2018-02-15T18:41:36.673Z,6.73
2018-02-15T18:44:04.021Z,6.60
2018-02-15T18:46:30.381Z,4.07
2018-02-15T18:48:56.673Z,5.97
2018-02-15T18:51:22.924Z,4.13
2018-02-15T18:53:49.127Z,4.27
2018-02-15T18:56:15.348Z,3.63
2018-02-15T18:58:41.536Z,3.23
2018-02-15T19:01:07.805Z,4.47
2018-02-15T19:03:33.987Z,3.60
2018-02-15T19:06:00.188Z,3.37
2018-02-15T19:08:26.377Z,3.90
2018-02-15T19:10:52.556Z,6.50
2018-02-15T19:13:18.768Z,4.23
2018-02-15T19:15:45.005Z,4.33
2018-02-15T19:18:11.202Z,5.20
2018-02-15T19:20:37.418Z,3.83
2018-02-15T19:23:03.592Z,4.90
2018-02-15T19:25:29.840Z,4.17
2018-02-15T19:27:56.067Z,5.20
2018-02-15T19:30:22.293Z,6.50
2018-02-15T19:32:48.489Z,6.27
2018-02-15T19:35:14.663Z,7.60
2018-02-15T19:37:40.877Z,6.20
2018-02-15T19:40:07.094Z,5.47
2018-02-15T19:42:33.346Z,5.70
2018-02-15T19:44:59.505Z,5.60
2018-02-15T19:47:26.149Z,8.50
2018-02-15T19:49:52.355Z,4.63
2018-02-15T19:52:18.601Z,5.00
2018-02-15T19:54:44.824Z,5.77
2018-02-15T19:57:11.148Z,5.57
2018-02-15T19:59:37.374Z,5.30
2018-02-15T20:02:03.554Z,6.27
2018-02-15T20:04:29.733Z,6.83
2018-02-15T20:06:55.964Z,5.63
2018-02-15T20:09:22.216Z,6.30
2018-02-15T20:11:48.426Z,5.60
2018-02-15T20:14:14.615Z,4.40
2018-02-15T20:16:40.840Z,4.00
2018-02-15T20:19:06.975Z,5.50
2018-02-15T20:21:33.128Z,4.80
2018-02-15T20:23:59.339Z,8.87
2018-02-15T20:26:31.465Z,4.73
2018-02-15T20:28:57.704Z,4.97
2018-02-15T20:31:23.938Z,5.03
2018-02-15T20:33:50.139Z,4.43
2018-02-15T20:36:16.284Z,4.67
2018-02-15T20:38:48.647Z,4.73
2018-02-15T20:41:14.884Z,5.67
2018-02-15T20:43:41.094Z,4.57
2018-02-15T20:46:07.279Z,4.43
2018-02-15T20:48:33.609Z,5.40
2018-02-15T20:51:05.736Z,4.70
2018-02-15T20:53:38.051Z,4.90
2018-02-15T20:56:04.265Z,5.40
2018-02-15T20:58:30.499Z,4.83
2018-02-15T21:00:56.654Z,4.87
2018-02-15T21:03:22.815Z,5.00
2018-02-15T21:05:49.029Z,8.00
2018-02-15T21:08:15.233Z,4.80
2018-02-15T21:10:41.418Z,4.27
2018-02-15T21:13:07.624Z,4.53
2018-02-15T21:15:33.780Z,4.97
2018-02-15T21:17:59.996Z,4.53
2018-02-15T21:20:26.194Z,4.73
2018-02-15T21:22:52.353Z,4.23
2018-02-15T21:25:18.515Z,4.97
2018-02-15T21:27:44.767Z,4.40
2018-02-15T21:30:10.943Z,4.70
2018-02-15T21:32:37.108Z,4.70
2018-02-15T21:35:03.304Z,5.40
2018-02-15T21:37:29.489Z,6.03
2018-02-15T21:39:56.154Z,5.47
2018-02-15T21:42:22.367Z,8.67
2018-02-15T21:44:48.509Z,5.40
2018-02-15T21:47:14.729Z,5.50
2018-02-15T21:49:40.862Z,5.63
2018-02-15T21:52:07.087Z,5.57
2018-02-15T21:54:33.265Z,6.40
2018-02-15T21:56:59.496Z,5.10
2018-02-15T21:59:25.719Z,5.13
2018-02-15T22:01:51.881Z,4.97
2018-02-15T22:04:18.031Z,5.53
2018-02-15T22:06:44.255Z,5.50
2018-02-15T22:09:10.496Z,5.30
2018-02-15T22:11:36.705Z,4.97
2018-02-15T22:14:02.864Z,5.10
2018-02-15T22:16:29.067Z,5.43
2018-02-15T22:18:55.284Z,7.43
2018-02-15T22:21:21.422Z,4.50
2018-02-15T22:23:47.599Z,4.63
2018-02-15T22:26:13.772Z,5.97
2018-02-15T22:28:40.011Z,5.80
2018-02-15T22:31:06.182Z,5.53
2018-02-15T22:33:32.349Z,5.63
2018-02-15T22:35:58.573Z,5.27
2018-02-15T22:38:24.803Z,5.00
2018-02-15T22:40:50.947Z,4.93
2018-02-15T22:43:17.167Z,5.30
2018-02-15T22:45:43.301Z,5.03
2018-02-15T22:48:09.521Z,5.97
2018-02-15T22:50:35.757Z,7.20
2018-02-15T22:53:01.928Z,5.00
2018-02-15T22:55:28.076Z,6.60
2018-02-15T22:57:54.303Z,4.93
2018-02-15T23:00:20.451Z,4.90
2018-02-15T23:02:46.624Z,4.87
2018-02-15T23:05:12.823Z,4.53
2018-02-15T23:07:39.047Z,4.63
2018-02-15T23:10:05.194Z,4.30
2018-02-15T23:12:31.435Z,4.10
2018-02-15T23:14:57.588Z,4.90
2018-02-15T23:17:23.760Z,5.07
2018-02-15T23:19:49.954Z,5.27
2018-02-15T23:22:16.176Z,5.27
2018-02-15T23:24:42.343Z,4.83
2018-02-15T23:27:08.504Z,5.20
2018-02-15T23:29:34.750Z,5.03
2018-02-15T23:32:00.908Z,5.70
2018-02-15T23:34:27.051Z,4.67
2018-02-15T23:36:53.223Z,4.17
2018-02-15T23:39:19.452Z,4.13
2018-02-15T23:41:45.655Z,4.70
2018-02-15T23:44:11.842Z,3.90
2018-02-15T23:46:37.980Z,3.27
2018-02-15T23:49:04.178Z,4.67
2018-02-15T23:51:30.381Z,3.57
2018-02-15T23:53:56.540Z,3.87
2018-02-15T23:56:22.761Z,4.13
2018-02-15T23:58:49.112Z,3.80
